Chanute Martin Johnson Airport Chanute US
ICAO: KCNU
IATA: CNU
Category: Medium
Scheduled Services: No

Elevation: 1002 ft
TransAlt. 18000 ft.

Airport Communications:
ASOS:127.075
KANSAS CITY CNTR:132.9
WICHITA RDO:122.35
CTAF/UNICOM:122.7

KCNU Zoom In..

Runways:

(A) RW 18 length 4255 ft width 75 ft
---- / hdg 182

(B) RW 36 length 4255 ft width 75 ft
---- / hdg 2

Location; KCNU
Day. 23 / Time. 21.52 Zulu
* Altimeter: 30.23
* Temperature: 07° c. 44.6°f.
* Wind from: 330° Speed 05 kn.
Dewpoint: -05° c.
Visibility: 10 Statute Miles.
Clouds: Clear (automated report).

KCNU 232152Z AUTO 33005KT 10SM CLR 07/M05 A3023 RMK AO2 SLP240 T00671050


Wind From 330°
Speed 05 kn.

YouTube Music Video
 
jpsmedia.com for Web Design  worldairports.se 2018   terms of use